Terminal Aerodrome Forecast
Issued by NWS Brownsville, TX

Home | Current Version | Previous Version | Text Only | Print | Product List | Glossary On
Versions: 1 2 3 4 5 6 7 8 9 10 11 12 13 14 15 16 17 18 19
593
FTUS44 KBRO 231724
TAFMFE
TAF
KMFE 231724Z 2318/2418 27005KT P6SM SKC
     FM232000 15008KT P6SM SKC
     FM241400 16013G20KT P6SM FEW030
     FM241600 16018G25KT P6SM FEW050=

USA.gov is the U.S. government's official web portal to all federal, state and local government web resources and services.